createdAt,value
2023-09-07T00:00:33.502Z,99.90
2023-09-07T00:03:01.236Z,99.90
2023-09-07T00:05:28.262Z,99.90
2023-09-07T00:07:55.099Z,99.90
2023-09-07T00:10:21.992Z,99.90
2023-09-07T00:12:48.807Z,99.90
2023-09-07T00:15:15.563Z,99.90
2023-09-07T00:17:42.261Z,99.90
2023-09-07T00:20:12.376Z,99.90
2023-09-07T00:22:39.405Z,99.90
2023-09-07T00:25:07.880Z,99.90
2023-09-07T00:27:35.439Z,99.90
2023-09-07T00:30:05.542Z,99.90
2023-09-07T00:32:34.785Z,99.90
2023-09-07T00:35:01.510Z,99.90
2023-09-07T00:37:28.287Z,99.90
2023-09-07T00:39:55.040Z,99.90
2023-09-07T00:42:22.031Z,99.90
2023-09-07T00:44:49.217Z,99.90
2023-09-07T00:47:17.332Z,99.90
2023-09-07T00:49:44.744Z,99.90
2023-09-07T00:52:11.644Z,99.90
2023-09-07T00:54:43.051Z,99.90
2023-09-07T00:57:10.129Z,99.90
2023-09-07T00:59:37.377Z,99.90
2023-09-07T01:02:06.826Z,99.90
2023-09-07T01:04:34.383Z,99.90
2023-09-07T01:07:07.015Z,99.90
2023-09-07T01:09:38.026Z,99.90
2023-09-07T01:12:05.416Z,99.90
2023-09-07T01:14:32.780Z,99.90
2023-09-07T01:16:59.781Z,99.90
2023-09-07T01:19:26.695Z,99.90
2023-09-07T01:21:53.632Z,99.90
2023-09-07T01:24:21.831Z,99.90
2023-09-07T01:26:50.551Z,99.90
2023-09-07T01:29:18.017Z,99.90
2023-09-07T01:31:44.972Z,99.90
2023-09-07T01:34:11.864Z,99.90
2023-09-07T01:36:38.873Z,99.90
2023-09-07T01:39:09.448Z,99.90
2023-09-07T01:41:36.626Z,99.90
2023-09-07T01:44:03.915Z,99.90
2023-09-07T01:46:30.805Z,99.90
2023-09-07T01:48:57.682Z,99.90
2023-09-07T01:51:24.454Z,99.90
2023-09-07T01:53:51.214Z,99.90
2023-09-07T01:56:18.472Z,99.90
2023-09-07T01:58:45.424Z,99.90
2023-09-07T02:01:32.795Z,99.90
2023-09-07T02:03:59.572Z,99.90
2023-09-07T02:06:26.269Z,99.90
2023-09-07T02:08:52.967Z,99.90
2023-09-07T02:11:19.947Z,99.90
2023-09-07T02:13:48.681Z,99.90
2023-09-07T02:16:15.629Z,99.90
2023-09-07T02:18:47.949Z,99.90
2023-09-07T02:21:14.804Z,99.90
2023-09-07T02:23:42.056Z,99.90
2023-09-07T02:26:09.165Z,99.90
2023-09-07T02:28:35.900Z,99.90
2023-09-07T02:31:06.943Z,99.90
2023-09-07T02:33:34.614Z,99.90
2023-09-07T02:36:01.428Z,99.90
2023-09-07T02:38:28.299Z,99.90
2023-09-07T02:40:57.097Z,99.90
2023-09-07T02:43:23.933Z,99.90
2023-09-07T02:45:51.658Z,99.90
2023-09-07T02:48:21.773Z,99.90
2023-09-07T02:50:51.599Z,99.90
2023-09-07T02:53:20.368Z,99.90
2023-09-07T02:55:47.895Z,99.90
2023-09-07T02:58:14.916Z,99.90
2023-09-07T03:00:45.950Z,99.90
2023-09-07T03:03:15.192Z,99.90
2023-09-07T03:05:43.978Z,99.90
2023-09-07T03:08:11.218Z,99.90
2023-09-07T03:10:41.914Z,99.90
2023-09-07T03:13:09.362Z,99.90
2023-09-07T03:15:37.069Z,99.90
2023-09-07T03:18:07.453Z,99.90
2023-09-07T03:20:35.692Z,99.90
2023-09-07T03:23:03.676Z,99.90
2023-09-07T03:25:30.706Z,99.90
2023-09-07T03:27:57.692Z,99.90
2023-09-07T03:30:24.644Z,99.90
2023-09-07T03:32:53.548Z,99.90
2023-09-07T03:35:21.154Z,99.90
2023-09-07T03:37:48.313Z,99.90
2023-09-07T03:40:15.152Z,99.90
2023-09-07T03:42:42.240Z,99.90
2023-09-07T03:45:10.318Z,99.90
2023-09-07T03:47:38.552Z,99.90
2023-09-07T03:50:05.939Z,99.90
2023-09-07T03:52:33.552Z,99.90
2023-09-07T03:55:02.533Z,99.90
2023-09-07T03:57:29.837Z,99.90
2023-09-07T03:59:57.862Z,99.90
2023-09-07T04:02:25.629Z,99.90
2023-09-07T04:04:58.540Z,99.90
2023-09-07T04:07:25.488Z,99.90
2023-09-07T04:09:52.356Z,99.90
2023-09-07T04:12:19.259Z,99.90
2023-09-07T04:14:46.113Z,99.90
2023-09-07T04:17:13.199Z,99.90
2023-09-07T04:19:40.165Z,99.90
2023-09-07T04:22:07.685Z,99.90
2023-09-07T04:24:34.523Z,99.90
2023-09-07T04:27:02.802Z,99.90
2023-09-07T04:29:30.757Z,99.90
2023-09-07T04:31:58.229Z,99.90
2023-09-07T04:34:25.415Z,99.90
2023-09-07T04:36:54.044Z,99.90
2023-09-07T04:39:20.996Z,99.90
2023-09-07T04:41:47.948Z,99.90
2023-09-07T04:44:15.450Z,99.90
2023-09-07T04:46:43.086Z,99.90
2023-09-07T04:49:10.812Z,99.90
2023-09-07T04:51:37.774Z,99.90
2023-09-07T04:54:04.832Z,99.90
2023-09-07T04:56:32.315Z,99.90
2023-09-07T04:58:59.233Z,99.90
2023-09-07T05:01:26.809Z,99.90
2023-09-07T05:03:56.250Z,99.90
2023-09-07T05:06:24.284Z,99.90
2023-09-07T05:08:51.784Z,99.90
2023-09-07T05:11:18.521Z,99.90
2023-09-07T05:13:45.233Z,99.90
2023-09-07T05:16:12.148Z,99.90
2023-09-07T05:18:39.135Z,99.90
2023-09-07T05:21:16.170Z,99.90
2023-09-07T05:23:43.841Z,99.90
2023-09-07T05:26:11.254Z,99.90
2023-09-07T05:28:38.039Z,99.90
2023-09-07T05:31:04.951Z,99.90
2023-09-07T05:33:33.015Z,99.90
2023-09-07T05:35:59.831Z,99.90
2023-09-07T05:38:26.651Z,99.90
2023-09-07T05:40:55.405Z,99.90
2023-09-07T05:43:23.799Z,99.90
2023-09-07T05:45:50.693Z,99.90
2023-09-07T05:48:18.145Z,99.90
2023-09-07T05:50:46.049Z,99.90
2023-09-07T05:53:13.562Z,99.90
2023-09-07T05:55:40.368Z,99.90
2023-09-07T05:58:08.596Z,99.90
2023-09-07T06:00:40.296Z,99.90
2023-09-07T06:03:08.268Z,99.90
2023-09-07T06:05:36.864Z,99.90
2023-09-07T06:08:04.566Z,99.90
2023-09-07T06:10:31.853Z,99.90
2023-09-07T06:13:01.350Z,99.90
2023-09-07T06:15:28.641Z,99.90
2023-09-07T06:17:55.829Z,99.90
2023-09-07T06:20:22.771Z,99.90
2023-09-07T06:22:50.322Z,99.90
2023-09-07T06:25:17.346Z,99.90
2023-09-07T06:27:44.669Z,99.90
2023-09-07T06:30:11.689Z,99.90
2023-09-07T06:32:41.424Z,99.90
2023-09-07T06:35:09.748Z,99.90
2023-09-07T06:37:37.406Z,99.90
2023-09-07T06:40:04.806Z,99.90
2023-09-07T06:42:32.044Z,99.90
2023-09-07T06:45:05.769Z,99.90
2023-09-07T06:47:32.753Z,99.90
2023-09-07T06:50:00.696Z,99.90
2023-09-07T06:52:29.425Z,99.90
2023-09-07T06:54:56.230Z,99.90
2023-09-07T06:57:23.575Z,99.90
2023-09-07T06:59:52.027Z,99.90
2023-09-07T07:02:18.885Z,99.90
2023-09-07T07:04:47.487Z,99.90
2023-09-07T07:07:15.850Z,99.90
2023-09-07T07:09:42.760Z,99.90
2023-09-07T07:12:09.591Z,99.90
2023-09-07T07:14:37.628Z,99.90
2023-09-07T07:17:06.073Z,99.90
2023-09-07T07:19:34.003Z,99.90
2023-09-07T07:22:02.157Z,99.90
2023-09-07T07:24:29.039Z,99.90
2023-09-07T07:26:55.973Z,99.90
2023-09-07T07:29:22.818Z,99.60
2023-09-07T07:31:50.087Z,99.30
2023-09-07T07:34:17.071Z,99.00
2023-09-07T07:36:44.192Z,98.60
2023-09-07T07:39:11.120Z,98.00
2023-09-07T07:41:40.910Z,97.60
2023-09-07T07:44:09.273Z,97.80
2023-09-07T07:46:36.203Z,97.30
2023-09-07T07:49:03.193Z,96.20
2023-09-07T07:51:29.988Z,95.70
2023-09-07T07:53:57.622Z,95.80
2023-09-07T07:56:25.551Z,94.50
2023-09-07T07:58:54.507Z,94.70
2023-09-07T08:01:22.030Z,94.80
2023-09-07T08:03:51.182Z,94.40
2023-09-07T08:06:18.200Z,93.30
2023-09-07T08:08:46.739Z,93.10
2023-09-07T08:11:15.153Z,92.60
2023-09-07T08:13:42.362Z,92.70
2023-09-07T08:16:11.754Z,91.80
2023-09-07T08:18:41.521Z,90.60
2023-09-07T08:21:08.948Z,90.60
2023-09-07T08:23:35.616Z,89.70
2023-09-07T08:26:02.495Z,87.90
2023-09-07T08:28:30.481Z,85.50
2023-09-07T08:31:00.255Z,85.40
2023-09-07T08:33:29.987Z,84.70
2023-09-07T08:35:58.260Z,77.70
2023-09-07T08:38:30.270Z,78.00
2023-09-07T08:41:01.927Z,76.40
2023-09-07T08:43:30.324Z,72.20
2023-09-07T08:46:05.808Z,71.80
2023-09-07T08:48:33.236Z,73.40
2023-09-07T08:51:02.085Z,73.20
2023-09-07T08:53:31.179Z,72.20
2023-09-07T08:55:57.926Z,72.20
2023-09-07T08:58:24.608Z,68.10
2023-09-07T09:00:53.142Z,67.90
2023-09-07T09:03:20.222Z,67.80
2023-09-07T09:05:51.130Z,68.20
2023-09-07T09:08:21.431Z,64.20
2023-09-07T09:10:48.241Z,68.30
2023-09-07T09:13:15.812Z,66.30
2023-09-07T09:15:42.728Z,67.00
2023-09-07T09:18:14.649Z,66.60
2023-09-07T09:20:41.496Z,67.10
2023-09-07T09:23:08.429Z,67.60
2023-09-07T09:25:35.537Z,66.00
2023-09-07T09:28:02.310Z,65.40
2023-09-07T09:30:29.738Z,62.10
2023-09-07T09:32:56.708Z,63.30
2023-09-07T09:35:24.487Z,63.30
2023-09-07T09:37:51.291Z,62.20
2023-09-07T09:40:19.079Z,62.40
2023-09-07T09:42:46.223Z,62.90
2023-09-07T09:45:13.742Z,61.50
2023-09-07T09:47:42.741Z,61.90
2023-09-07T09:50:11.267Z,62.10
2023-09-07T09:52:38.876Z,60.70
2023-09-07T09:55:08.934Z,59.60
2023-09-07T09:57:38.865Z,59.40
2023-09-07T10:00:18.366Z,59.50
2023-09-07T10:02:49.387Z,62.40
2023-09-07T10:05:17.367Z,61.90
2023-09-07T10:07:46.069Z,60.00
2023-09-07T10:10:16.634Z,62.00
2023-09-07T10:12:54.547Z,60.50
2023-09-07T10:15:22.939Z,61.40
2023-09-07T10:17:51.317Z,60.90
2023-09-07T10:20:19.138Z,60.50
2023-09-07T10:22:46.248Z,59.70
2023-09-07T10:25:21.087Z,59.00
2023-09-07T10:27:48.287Z,59.60
2023-09-07T10:30:20.220Z,59.10
2023-09-07T10:32:47.327Z,58.60
2023-09-07T10:35:19.172Z,55.60
2023-09-07T10:37:50.171Z,55.80
2023-09-07T10:40:22.265Z,56.10
2023-09-07T10:42:49.341Z,56.80
2023-09-07T10:45:17.868Z,59.10
2023-09-07T10:47:45.258Z,58.30
2023-09-07T10:50:13.916Z,59.90
2023-09-07T10:52:42.363Z,59.20
2023-09-07T10:55:13.982Z,57.80
2023-09-07T10:57:48.659Z,58.80
2023-09-07T11:00:16.263Z,56.90
2023-09-07T11:02:44.735Z,57.10
2023-09-07T11:05:11.647Z,57.30
2023-09-07T11:07:39.925Z,56.60
2023-09-07T11:10:07.830Z,56.50
2023-09-07T11:12:41.331Z,56.00
2023-09-07T11:15:12.137Z,55.40
2023-09-07T11:17:40.893Z,56.90
2023-09-07T11:20:08.723Z,56.40
2023-09-07T11:22:36.307Z,55.50
2023-09-07T11:25:04.108Z,55.60
2023-09-07T11:27:31.619Z,56.80
2023-09-07T11:29:59.289Z,55.50
2023-09-07T11:32:34.990Z,56.30
2023-09-07T11:35:02.019Z,55.20
2023-09-07T11:37:28.860Z,56.00
2023-09-07T11:39:55.654Z,56.40
2023-09-07T11:42:22.652Z,55.90
2023-09-07T11:44:49.364Z,56.00
2023-09-07T11:47:16.140Z,55.40
2023-09-07T11:49:43.045Z,55.40
2023-09-07T11:52:09.873Z,54.90
2023-09-07T11:54:36.745Z,54.10
2023-09-07T11:57:03.584Z,54.90
2023-09-07T11:59:35.810Z,53.90
2023-09-07T12:02:16.150Z,54.00
2023-09-07T12:04:43.168Z,54.30
2023-09-07T12:07:10.032Z,53.90
2023-09-07T12:09:37.294Z,53.60
2023-09-07T12:12:05.123Z,54.10
2023-09-07T12:14:32.342Z,54.10
2023-09-07T12:16:59.376Z,54.00
2023-09-07T12:19:26.144Z,54.30
2023-09-07T12:21:53.028Z,54.20
2023-09-07T12:24:19.843Z,54.60
2023-09-07T12:26:46.725Z,54.00
2023-09-07T12:29:14.250Z,54.20
2023-09-07T12:31:41.042Z,54.80
2023-09-07T12:34:09.628Z,54.80
2023-09-07T12:36:36.369Z,54.30
2023-09-07T12:39:03.200Z,53.90
2023-09-07T12:41:31.711Z,54.70
2023-09-07T12:43:58.610Z,54.20
2023-09-07T12:46:26.795Z,54.40
2023-09-07T12:48:53.647Z,54.80
2023-09-07T12:51:20.334Z,53.90
2023-09-07T12:53:47.058Z,54.50
2023-09-07T12:56:14.569Z,54.90
2023-09-07T12:58:41.287Z,54.10
2023-09-07T13:01:11.025Z,52.70
2023-09-07T13:03:40.720Z,53.30
2023-09-07T13:06:07.505Z,52.70
2023-09-07T13:08:36.455Z,53.20
2023-09-07T13:11:03.975Z,52.70
2023-09-07T13:13:31.160Z,52.60
2023-09-07T13:15:58.522Z,52.90
2023-09-07T13:18:28.247Z,52.60
2023-09-07T13:21:00.735Z,52.70
2023-09-07T13:23:28.586Z,52.00
2023-09-07T13:25:57.113Z,52.20
2023-09-07T13:28:24.704Z,52.10
2023-09-07T13:30:51.839Z,51.70
2023-09-07T13:33:18.672Z,51.00
2023-09-07T13:35:46.422Z,51.10
2023-09-07T13:38:14.310Z,51.70
2023-09-07T13:40:41.178Z,51.50
2023-09-07T13:43:07.892Z,51.00
2023-09-07T13:45:34.911Z,50.00
2023-09-07T13:48:03.245Z,50.00
2023-09-07T13:50:30.526Z,51.20
2023-09-07T13:52:57.510Z,51.60
2023-09-07T13:55:26.301Z,51.10
2023-09-07T13:57:53.201Z,51.10
2023-09-07T14:00:19.959Z,51.40
2023-09-07T14:02:46.791Z,49.80
2023-09-07T14:05:13.940Z,51.20
2023-09-07T14:07:40.727Z,50.20
2023-09-07T14:10:07.996Z,51.30
2023-09-07T14:12:34.671Z,51.70
2023-09-07T14:15:01.389Z,51.30
2023-09-07T14:17:28.142Z,50.30
2023-09-07T14:19:54.876Z,50.70
2023-09-07T14:22:21.593Z,51.60
2023-09-07T14:24:48.295Z,51.90
2023-09-07T14:27:15.019Z,51.50
2023-09-07T14:29:41.708Z,51.20
2023-09-07T14:32:08.412Z,51.20
2023-09-07T14:34:35.139Z,49.80
2023-09-07T14:37:03.277Z,50.90
2023-09-07T14:39:30.130Z,51.10
2023-09-07T14:41:56.877Z,51.70
2023-09-07T14:44:23.821Z,52.10
2023-09-07T14:46:51.579Z,52.10
2023-09-07T14:49:18.826Z,52.50
2023-09-07T14:51:48.786Z,52.80
2023-09-07T14:54:15.648Z,52.70
2023-09-07T14:56:42.381Z,52.60
2023-09-07T14:59:09.141Z,53.30
2023-09-07T15:01:36.156Z,52.90
2023-09-07T15:04:02.948Z,53.40
2023-09-07T15:06:29.891Z,52.90
2023-09-07T15:08:57.880Z,53.40
2023-09-07T15:11:24.603Z,53.60
2023-09-07T15:13:52.587Z,53.30
2023-09-07T15:16:19.640Z,53.60
2023-09-07T15:18:46.483Z,55.00
2023-09-07T15:21:13.188Z,54.60
2023-09-07T15:23:40.008Z,53.50
2023-09-07T15:26:06.848Z,54.50
2023-09-07T15:28:33.860Z,53.90
2023-09-07T15:31:00.860Z,53.50
2023-09-07T15:33:27.740Z,54.10
2023-09-07T15:35:54.501Z,54.30
2023-09-07T15:38:21.414Z,54.10
2023-09-07T15:40:49.523Z,55.20
2023-09-07T15:43:16.384Z,53.90
2023-09-07T15:45:43.146Z,53.90
2023-09-07T15:48:10.141Z,54.00
2023-09-07T15:50:36.970Z,54.40
2023-09-07T15:53:03.817Z,53.20
2023-09-07T15:55:30.587Z,53.70
2023-09-07T15:57:57.425Z,53.70
2023-09-07T16:00:24.149Z,54.50
2023-09-07T16:02:51.039Z,53.80
2023-09-07T16:05:18.414Z,53.80
2023-09-07T16:07:45.309Z,53.90
2023-09-07T16:10:13.835Z,53.50
2023-09-07T16:12:40.706Z,53.40
2023-09-07T16:15:08.724Z,54.20
2023-09-07T16:17:36.041Z,53.80
2023-09-07T16:20:04.144Z,53.60
2023-09-07T16:22:30.842Z,53.80
2023-09-07T16:24:58.792Z,53.60
2023-09-07T16:27:25.581Z,53.20
2023-09-07T16:29:52.333Z,53.30
2023-09-07T16:32:19.280Z,54.00
2023-09-07T16:34:46.184Z,53.60
2023-09-07T16:37:12.916Z,54.10
2023-09-07T16:39:39.689Z,54.20
2023-09-07T16:42:06.383Z,54.60
2023-09-07T16:44:33.201Z,54.70
2023-09-07T16:46:59.889Z,54.80
2023-09-07T16:49:26.643Z,55.10
2023-09-07T16:51:53.463Z,55.60
2023-09-07T16:54:20.577Z,56.30
2023-09-07T16:56:47.955Z,56.50
2023-09-07T16:59:46.366Z,57.40
2023-09-07T17:02:03.242Z,56.90
2023-09-07T17:04:34.798Z,56.90
2023-09-07T17:07:08.279Z,57.20
2023-09-07T17:09:35.948Z,57.80
2023-09-07T17:12:02.976Z,58.10
2023-09-07T17:14:30.004Z,58.10
2023-09-07T17:16:57.833Z,58.30
2023-09-07T17:19:25.710Z,58.80
2023-09-07T17:21:53.067Z,59.20
2023-09-07T17:24:20.792Z,59.60
2023-09-07T17:26:48.148Z,59.80
2023-09-07T17:29:15.106Z,60.10
2023-09-07T17:31:42.138Z,60.40
2023-09-07T17:34:09.034Z,60.90
2023-09-07T17:36:36.020Z,61.10
2023-09-07T17:39:04.180Z,61.60
2023-09-07T17:41:35.871Z,61.60
2023-09-07T17:44:03.091Z,62.00
2023-09-07T17:46:31.226Z,62.40
2023-09-07T17:49:00.590Z,62.80
2023-09-07T17:51:27.427Z,63.10
2023-09-07T17:53:54.783Z,63.40
2023-09-07T17:56:21.587Z,63.50
2023-09-07T17:58:48.410Z,63.90
2023-09-07T18:01:16.576Z,64.70
2023-09-07T18:03:44.410Z,64.70
2023-09-07T18:06:11.616Z,65.00
2023-09-07T18:08:39.015Z,65.40
2023-09-07T18:11:06.693Z,65.70
2023-09-07T18:13:33.471Z,65.70
2023-09-07T18:16:00.314Z,65.80
2023-09-07T18:18:27.212Z,66.20
2023-09-07T18:20:54.068Z,66.00
2023-09-07T18:23:21.157Z,66.20
2023-09-07T18:25:47.941Z,66.40
2023-09-07T18:28:14.995Z,66.70
2023-09-07T18:30:42.650Z,67.40
2023-09-07T18:33:10.419Z,67.70
2023-09-07T18:35:37.760Z,67.80
2023-09-07T18:38:04.949Z,68.20
2023-09-07T18:40:31.834Z,68.40
2023-09-07T18:42:59.444Z,68.50
2023-09-07T18:45:29.571Z,69.00
2023-09-07T18:47:56.336Z,69.40
2023-09-07T18:50:24.922Z,69.50
2023-09-07T18:52:52.187Z,69.70
2023-09-07T18:55:19.770Z,69.70
2023-09-07T18:57:48.289Z,69.40
2023-09-07T19:00:16.450Z,69.60
2023-09-07T19:02:43.958Z,69.70
2023-09-07T19:05:11.137Z,69.70
2023-09-07T19:07:40.078Z,69.70
2023-09-07T19:10:08.203Z,69.90
2023-09-07T19:12:36.161Z,70.00
2023-09-07T19:15:03.942Z,70.00
2023-09-07T19:17:30.786Z,70.50
2023-09-07T19:19:58.194Z,70.60
2023-09-07T19:22:25.101Z,70.60
2023-09-07T19:24:51.948Z,70.60
2023-09-07T19:27:19.396Z,70.80
2023-09-07T19:29:47.845Z,71.00
2023-09-07T19:32:19.268Z,70.90
2023-09-07T19:34:46.744Z,71.20
2023-09-07T19:37:13.493Z,71.20
2023-09-07T19:39:40.208Z,71.80
2023-09-07T19:42:06.923Z,71.70
2023-09-07T19:44:34.120Z,71.70
2023-09-07T19:47:01.274Z,71.70
2023-09-07T19:49:28.309Z,72.20
2023-09-07T19:51:55.141Z,72.30
2023-09-07T19:54:21.939Z,72.50
2023-09-07T19:56:48.723Z,72.70
2023-09-07T19:59:15.672Z,72.70
2023-09-07T20:01:59.284Z,73.30
2023-09-07T20:04:27.115Z,73.50
2023-09-07T20:06:55.486Z,73.90
2023-09-07T20:09:22.667Z,74.10
2023-09-07T20:11:49.621Z,74.40
2023-09-07T20:14:17.493Z,74.80
2023-09-07T20:16:45.674Z,74.70
2023-09-07T20:19:14.120Z,75.10
2023-09-07T20:21:40.996Z,75.60
2023-09-07T20:24:09.490Z,75.70
2023-09-07T20:26:36.570Z,76.00
2023-09-07T20:29:05.483Z,76.50
2023-09-07T20:31:32.412Z,76.70
2023-09-07T20:33:59.255Z,77.10
2023-09-07T20:36:26.609Z,77.40
2023-09-07T20:38:53.680Z,77.70
2023-09-07T20:41:20.415Z,77.90
2023-09-07T20:43:47.784Z,79.00
2023-09-07T20:46:15.428Z,78.60
2023-09-07T20:48:42.272Z,78.80
2023-09-07T20:51:10.035Z,79.60
2023-09-07T20:53:37.045Z,79.60
2023-09-07T20:56:03.963Z,80.00
2023-09-07T20:58:30.731Z,80.60
2023-09-07T21:00:57.851Z,80.10
2023-09-07T21:03:25.088Z,80.60
2023-09-07T21:05:52.602Z,80.70
2023-09-07T21:08:19.511Z,81.10
2023-09-07T21:10:46.856Z,81.60
2023-09-07T21:13:14.213Z,81.90
2023-09-07T21:15:41.440Z,82.00
2023-09-07T21:18:08.500Z,83.00
2023-09-07T21:20:36.450Z,82.90
2023-09-07T21:23:04.172Z,83.30
2023-09-07T21:25:31.401Z,83.40
2023-09-07T21:27:58.572Z,83.50
2023-09-07T21:30:25.584Z,83.70
2023-09-07T21:32:52.584Z,84.00
2023-09-07T21:35:19.541Z,84.20
2023-09-07T21:37:46.352Z,85.30
2023-09-07T21:40:13.161Z,85.20
2023-09-07T21:42:39.905Z,85.10
2023-09-07T21:45:07.021Z,86.00
2023-09-07T21:47:34.183Z,85.90
2023-09-07T21:50:01.008Z,85.80
2023-09-07T21:52:27.858Z,86.40
2023-09-07T21:54:55.564Z,86.70
2023-09-07T21:57:24.959Z,86.40
2023-09-07T21:59:52.750Z,86.80
2023-09-07T22:02:19.973Z,88.00
2023-09-07T22:04:50.772Z,87.50
2023-09-07T22:07:17.833Z,88.00
2023-09-07T22:09:44.939Z,87.70
2023-09-07T22:12:11.779Z,87.60
2023-09-07T22:14:38.505Z,87.80
2023-09-07T22:17:05.596Z,89.30
2023-09-07T22:19:32.714Z,89.80
2023-09-07T22:21:59.481Z,89.70
2023-09-07T22:24:26.273Z,89.40
2023-09-07T22:26:55.179Z,89.30
2023-09-07T22:29:23.831Z,89.40
2023-09-07T22:31:50.883Z,89.50
2023-09-07T22:34:17.630Z,89.80
2023-09-07T22:36:44.376Z,89.80
2023-09-07T22:39:12.040Z,90.20
2023-09-07T22:41:38.840Z,90.20
2023-09-07T22:44:05.820Z,90.30
2023-09-07T22:46:34.022Z,90.40
2023-09-07T22:49:01.462Z,90.40
2023-09-07T22:51:28.246Z,90.50
2023-09-07T22:53:55.745Z,90.70
2023-09-07T22:56:22.576Z,90.90
2023-09-07T22:58:49.371Z,91.50
2023-09-07T23:01:16.131Z,91.20
2023-09-07T23:03:43.350Z,91.40
2023-09-07T23:06:10.271Z,91.50
2023-09-07T23:08:37.164Z,91.70
2023-09-07T23:11:05.540Z,91.90
2023-09-07T23:13:35.876Z,92.00
2023-09-07T23:16:03.657Z,92.10
2023-09-07T23:18:31.141Z,92.40
2023-09-07T23:20:57.894Z,92.60
2023-09-07T23:23:28.029Z,92.80
2023-09-07T23:25:55.170Z,92.80
2023-09-07T23:28:24.645Z,93.10
2023-09-07T23:30:52.410Z,93.10
2023-09-07T23:33:19.160Z,93.10
2023-09-07T23:35:45.941Z,93.30
2023-09-07T23:38:12.695Z,93.30
2023-09-07T23:40:39.515Z,93.50
2023-09-07T23:43:06.543Z,93.40
2023-09-07T23:45:33.436Z,93.70
2023-09-07T23:48:00.301Z,93.80
2023-09-07T23:50:27.411Z,93.90
2023-09-07T23:52:54.435Z,93.80
2023-09-07T23:55:21.228Z,94.10
2023-09-07T23:57:48.050Z,94.30
